Time;durP1;ratioP1;P1;durP2;ratioP2;P2;SDS_P1;SDS_P2;PMS_P1;PMS_P2;Temp;Humidity;BMP_temperature;BMP_pressure;BME280_temperature;BME280_humidity;BME280_pressure;Samples;Min_cycle;Max_cycle;Signal;HPM_P1;HPM_P2
2022/01/24 00:00:17;;;;;;;14.80;8.20;;;;;;;-5.26;77.72;100998.31;109085;1275;23397;-58
2022/01/24 00:02:45;;;;;;;13.30;7.60;;;;;;;-5.28;77.75;100998.52;108941;1275;138513;-59
2022/01/24 00:05:17;;;;;;;14.50;8.30;;;;;;;-5.31;77.87;101002.95;109072;1275;22432;-58
2022/01/24 00:07:45;;;;;;;11.80;7.10;;;;;;;-5.35;77.84;101007.88;109103;1275;22437;-58
2022/01/24 00:10:18;;;;;;;11.90;7.50;;;;;;;-5.35;77.91;101005.45;108971;1276;139127;-58
2022/01/24 00:15:52;;;;;;;14.30;8.00;;;;;;;-5.41;78.07;101012.23;108970;1277;138725;-58
2022/01/24 00:26:47;;;;;;;14.50;8.60;;;;;;;-5.52;78.55;101040.05;108294;1280;141195;-58
2022/01/24 00:29:18;;;;;;;16.80;9.60;;;;;;;-5.58;78.51;101048.14;108477;1282;22527;-58
2022/01/24 00:31:46;;;;;;;16.90;9.20;;;;;;;-5.70;78.47;101049.17;108458;1281;23394;-58
2022/01/24 00:34:15;;;;;;;17.90;10.00;;;;;;;-5.76;78.67;101056.88;108341;1281;138854;-58
2022/01/24 00:36:46;;;;;;;16.40;9.40;;;;;;;-5.79;78.76;101058.18;108453;1282;22459;-59
2022/01/24 00:39:15;;;;;;;18.40;10.60;;;;;;;-5.85;78.81;101056.87;108177;1281;139301;-58
2022/01/24 00:44:39;;;;;;;19.00;10.50;;;;;;;-5.95;78.92;101056.82;104063;1282;25593;-57
2022/01/24 00:47:08;;;;;;;18.20;10.80;;;;;;;-6.07;78.88;101051.67;104000;1282;139278;-57
2022/01/24 00:54:54;;;;;;;17.60;9.90;;;;;;;-6.25;79.24;101059.08;108500;1281;23200;-57
2022/01/24 00:57:22;;;;;;;17.20;10.30;;;;;;;-6.31;79.23;101056.27;108368;1281;139437;-58
2022/01/24 00:59:49;;;;;;;16.00;10.20;;;;;;;-6.37;79.27;101056.19;109012;1276;22575;-58
2022/01/24 01:02:19;;;;;;;17.20;9.30;;;;;;;-6.42;79.29;101056.05;109053;1276;22460;-57
2022/01/24 01:07:35;;;;;;;18.90;11.10;;;;;;;-6.50;79.26;101058.91;109074;1276;22440;-57
2022/01/24 01:18:26;;;;;;;17.80;10.30;;;;;;;-6.97;79.92;101068.33;109036;1276;23382;-57
2022/01/24 01:21:11;;;;;;;20.90;10.30;;;;;;;-7.05;80.16;101068.50;108870;1277;139156;-57
2022/01/24 01:23:43;;;;;;;17.30;9.40;;;;;;;-7.11;80.24;101066.84;109014;1276;22477;-58
2022/01/24 01:26:36;;;;;;;18.20;11.30;;;;;;;-7.17;80.45;101065.80;109047;1276;22466;-57
2022/01/24 01:29:16;;;;;;;18.30;10.10;;;;;;;-7.17;80.59;101080.96;108873;1277;138700;-58
2022/01/24 01:31:55;;;;;;;18.70;9.80;;;;;;;-7.24;80.68;101080.11;109004;1276;24666;-58
2022/01/24 01:55:38;;;;;;;15.20;8.80;;;;;;;-8.23;82.16;101099.14;108993;1277;22904;-62
2022/01/24 01:58:08;;;;;;;16.50;9.40;;;;;;;-8.27;82.42;101099.55;108933;1277;139131;-62
2022/01/24 02:00:37;;;;;;;17.10;9.20;;;;;;;-8.32;82.48;101096.02;108969;1277;22469;-62
2022/01/24 02:03:06;;;;;;;18.70;10.80;;;;;;;-8.30;82.72;101105.94;108889;1277;138209;-62
2022/01/24 02:05:35;;;;;;;18.00;9.80;;;;;;;-8.32;82.86;101105.91;109058;1276;22408;-61
2022/01/24 02:08:04;;;;;;;15.10;9.20;;;;;;;-8.29;83.27;101108.71;109027;1276;23180;-61
2022/01/24 02:10:35;;;;;;;14.00;8.50;;;;;;;-8.28;83.33;101105.11;108889;1276;138917;-61
2022/01/24 02:13:03;;;;;;;15.70;9.20;;;;;;;-8.28;83.42;101104.89;109063;1276;22467;-61
2022/01/24 02:15:54;;;;;;;18.20;10.50;;;;;;;-8.28;83.45;101107.94;108901;1277;139150;-61
2022/01/24 02:18:47;;;;;;;17.50;9.80;;;;;;;-8.29;83.64;101099.67;109010;1277;22584;-61
2022/01/24 02:21:38;;;;;;;17.30;10.00;;;;;;;-8.27;83.73;101095.50;108887;1277;138430;-61
2022/01/24 02:24:08;;;;;;;16.60;9.60;;;;;;;-8.27;83.77;101093.38;109054;1276;23597;-61
2022/01/24 02:26:36;;;;;;;20.90;9.60;;;;;;;-8.21;83.80;101097.41;109017;1277;22703;-62
2022/01/24 02:29:19;;;;;;;16.00;9.10;;;;;;;-8.15;83.93;101104.42;108966;1277;138076;-61
2022/01/24 02:31:50;;;;;;;17.90;10.20;;;;;;;-8.11;83.80;101103.33;109011;1276;23714;-61
2022/01/24 02:34:24;;;;;;;20.60;10.90;;;;;;;-8.11;83.87;101106.46;108881;1276;138895;-61
2022/01/24 02:36:53;;;;;;;16.80;9.30;;;;;;;-8.11;83.82;101105.60;109058;1277;23674;-61
2022/01/24 02:39:45;;;;;;;15.90;10.30;;;;;;;-8.15;83.67;101103.39;108894;1277;138467;-61
2022/01/24 02:53:14;;;;;;;15.60;9.40;;;;;;;-8.24;83.26;101096.55;108895;1277;139479;-62
2022/01/24 02:55:42;;;;;;;19.30;10.00;;;;;;;-8.22;83.29;101101.70;109041;1277;22688;-62
2022/01/24 02:58:10;;;;;;;17.10;10.10;;;;;;;-8.21;83.18;101101.63;108890;1277;139825;-63
2022/01/24 03:00:38;;;;;;;17.30;9.80;;;;;;;-8.18;83.13;101104.48;109036;1277;22559;-64
2022/01/24 03:03:06;;;;;;;16.40;10.30;;;;;;;-8.17;83.07;101108.78;108949;1277;138722;-64
2022/01/24 03:05:35;;;;;;;19.30;10.40;;;;;;;-8.19;82.91;101114.20;109022;1277;22499;-64
2022/01/24 03:08:03;;;;;;;17.90;9.70;;;;;;;-8.23;82.74;101123.24;109037;1277;22435;-60
2022/01/24 03:10:41;;;;;;;13.90;9.10;;;;;;;-8.31;82.76;101119.95;108878;1275;141095;-63
2022/01/24 03:15:57;;;;;;;15.80;8.90;;;;;;;-8.40;82.76;101125.47;108914;1277;139492;-62
2022/01/24 03:18:25;;;;;;;18.30;10.20;;;;;;;-8.43;82.72;101129.52;108988;1277;22473;-62
2022/01/24 03:20:53;;;;;;;17.30;9.70;;;;;;;-8.50;82.55;101126.77;108939;1277;139450;-62
2022/01/24 03:23:23;;;;;;;17.60;10.00;;;;;;;-8.53;82.70;101127.94;109044;1277;22442;-62
2022/01/24 03:25:51;;;;;;;17.00;8.80;;;;;;;-8.58;82.89;101130.98;109044;1277;22412;-62
2022/01/24 03:28:23;;;;;;;18.90;10.60;;;;;;;-8.62;82.99;101130.58;108930;1277;138525;-62
2022/01/24 03:30:51;;;;;;;15.30;9.20;;;;;;;-8.67;83.00;101128.42;109059;1276;22426;-62
2022/01/24 03:33:19;;;;;;;17.70;9.30;;;;;;;-8.70;83.24;101131.77;108899;1277;139756;-62
2022/01/24 03:35:47;;;;;;;20.00;8.50;;;;;;;-8.72;83.33;101131.87;109032;1277;22600;-62
2022/01/24 03:38:14;;;;;;;20.40;9.70;;;;;;;-8.73;83.45;101133.04;108958;1276;23169;-62
2022/01/24 03:40:42;;;;;;;16.20;8.70;;;;;;;-8.74;83.51;101129.90;108883;1277;139038;-62
2022/01/24 03:43:11;;;;;;;16.10;8.50;;;;;;;-8.74;83.62;101130.59;109048;1276;22464;-62
2022/01/24 03:45:46;;;;;;;17.40;8.90;;;;;;;-8.73;83.60;101133.88;108912;1277;140052;-62
2022/01/24 03:48:38;;;;;;;26.50;12.30;;;;;;;-8.75;83.80;101134.38;109033;1277;22448;-62
2022/01/24 03:51:06;;;;;;;18.40;9.40;;;;;;;-8.74;83.76;101138.73;108964;1277;139542;-61
2022/01/24 03:53:34;;;;;;;17.70;9.40;;;;;;;-8.77;83.85;101136.64;109015;1277;23150;-61
2022/01/24 03:56:03;;;;;;;19.40;9.40;;;;;;;-8.82;84.06;101138.02;109017;1276;22528;-61
2022/01/24 03:58:31;;;;;;;17.10;8.90;;;;;;;-8.85;84.02;101139.98;108949;1277;138733;-62
2022/01/24 04:01:00;;;;;;;17.80;9.70;;;;;;;-8.86;84.22;101138.27;109019;1277;23937;-63
2022/01/24 04:03:28;;;;;;;20.40;9.70;;;;;;;-8.86;84.50;101141.22;108926;1277;139022;-62
2022/01/24 04:05:56;;;;;;;18.40;9.70;;;;;;;-8.88;84.59;101135.71;108975;1277;22475;-62
2022/01/24 04:08:24;;;;;;;18.30;9.70;;;;;;;-8.81;84.75;101143.38;108959;1277;22489;-62
2022/01/24 04:11:17;;;;;;;18.10;10.40;;;;;;;-8.75;84.66;101143.39;108912;1277;139531;-62
2022/01/24 04:13:45;;;;;;;19.40;10.50;;;;;;;-8.72;84.76;101138.60;109092;1276;22429;-62
2022/01/24 04:16:29;;;;;;;20.30;10.40;;;;;;;-8.69;84.83;101138.27;108952;1277;138869;-62
2022/01/24 04:21:54;;;;;;;21.60;10.70;;;;;;;-8.69;84.99;101130.50;108302;1282;139207;-63
2022/01/24 04:24:24;;;;;;;20.40;11.00;;;;;;;-8.70;85.21;101135.80;108340;1282;23086;-62
2022/01/24 04:26:52;;;;;;;19.80;10.00;;;;;;;-8.70;85.38;101131.61;108207;1282;140428;-62
2022/01/24 04:29:20;;;;;;;25.40;11.60;;;;;;;-8.70;85.69;101132.49;108359;1282;23645;-63
2022/01/24 04:31:48;;;;;;;20.90;11.00;;;;;;;-8.68;85.76;101131.48;108379;1282;22426;-63
2022/01/24 04:34:16;;;;;;;25.40;12.60;;;;;;;-8.67;85.89;101133.02;108271;1282;139605;-63
2022/01/24 04:36:44;;;;;;;23.60;11.20;;;;;;;-8.68;85.99;101128.52;108360;1282;22488;-63
2022/01/24 04:39:13;;;;;;;22.70;12.10;;;;;;;-8.69;85.96;101123.29;108279;1282;140690;-62
2022/01/24 04:41:44;;;;;;;23.00;11.20;;;;;;;-8.69;86.09;101121.15;108386;1282;22602;-62
2022/01/24 04:55:05;;;;;;;21.80;10.40;;;;;;;-8.74;86.28;101139.96;108385;1282;22640;-62
2022/01/24 04:57:33;;;;;;;22.40;11.20;;;;;;;-8.77;86.29;101147.86;108357;1282;139193;-63
2022/01/24 05:00:02;;;;;;;19.40;10.10;;;;;;;-8.76;86.35;101154.36;108903;1277;22516;-63
2022/01/24 05:02:31;;;;;;;19.80;10.70;;;;;;;-8.77;86.21;101154.92;109055;1276;22538;-63
2022/01/24 05:05:00;;;;;;;19.40;9.90;;;;;;;-8.76;86.27;101157.32;108927;1277;139790;-63
2022/01/24 05:07:28;;;;;;;23.20;11.70;;;;;;;-8.75;86.18;101160.24;109044;1277;22611;-63
2022/01/24 05:26:00;;;;;;;20.50;10.90;;;;;;;-8.62;86.00;101165.98;109023;1277;22567;-61
2022/01/24 05:28:28;;;;;;;16.00;8.80;;;;;;;-8.64;85.92;101166.57;108927;1278;139835;-65
2022/01/24 05:30:56;;;;;;;17.00;10.10;;;;;;;-8.63;85.86;101167.25;109015;1276;23093;-62
2022/01/24 05:33:24;;;;;;;21.50;11.10;;;;;;;-8.61;85.92;101169.05;108855;1277;139973;-62
2022/01/24 05:35:52;;;;;;;18.10;10.60;;;;;;;-8.59;85.72;101169.84;109028;1277;22435;-62
2022/01/24 05:38:22;;;;;;;21.00;12.00;;;;;;;-8.58;85.69;101173.27;109009;1277;23135;-62
2022/01/24 05:40:50;;;;;;;15.90;8.70;;;;;;;-8.56;85.52;101178.96;108939;1277;139591;-58
2022/01/24 05:43:18;;;;;;;16.80;10.60;;;;;;;-8.53;85.55;101177.04;109051;1277;22420;-59
2022/01/24 05:45:46;;;;;;;19.40;10.20;;;;;;;-8.50;85.45;101174.69;108901;1277;139529;-59
2022/01/24 05:48:14;;;;;;;17.20;10.20;;;;;;;-8.49;85.39;101179.04;109060;1277;23680;-59
2022/01/24 05:50:42;;;;;;;18.80;10.40;;;;;;;-8.48;85.24;101181.30;109012;1277;22567;-59
2022/01/24 05:53:10;;;;;;;18.40;9.70;;;;;;;-8.50;85.01;101181.61;108898;1276;139770;-59
2022/01/24 05:55:38;;;;;;;18.30;9.30;;;;;;;-8.52;85.09;101181.73;109047;1277;22460;-59
2022/01/24 05:58:06;;;;;;;18.80;10.20;;;;;;;-8.53;84.99;101188.17;108941;1276;139709;-57
2022/01/24 06:00:35;;;;;;;16.40;9.80;;;;;;;-8.57;84.60;101191.02;109037;1277;22535;-58
2022/01/24 06:03:03;;;;;;;16.70;9.20;;;;;;;-8.60;84.73;101190.86;109005;1278;139898;-58
2022/01/24 06:05:31;;;;;;;17.40;9.00;;;;;;;-8.63;84.94;101192.06;109053;1277;23367;-58
2022/01/24 06:07:59;;;;;;;18.90;9.70;;;;;;;-8.63;84.78;101191.73;109074;1278;22529;-57
2022/01/24 06:10:27;;;;;;;15.90;8.70;;;;;;;-8.64;84.68;101190.39;108927;1278;139664;-58
2022/01/24 06:12:55;;;;;;;16.20;8.90;;;;;;;-8.64;84.71;101192.87;109059;1277;22539;-59
2022/01/24 06:15:23;;;;;;;19.40;8.90;;;;;;;-8.66;84.65;101192.84;108953;1277;139470;-58
2022/01/24 06:17:52;;;;;;;17.90;8.20;;;;;;;-8.67;84.75;101193.75;109030;1277;22467;-58
2022/01/24 06:20:26;;;;;;;14.70;8.50;;;;;;;-8.66;84.80;101191.79;109020;1277;22519;-57
2022/01/24 06:22:54;;;;;;;14.50;8.10;;;;;;;-8.68;84.80;101189.75;108981;1277;139530;-58
2022/01/24 06:25:25;;;;;;;17.70;7.60;;;;;;;-8.69;84.81;101192.31;109034;1276;22460;-58
2022/01/24 06:27:53;;;;;;;14.50;8.40;;;;;;;-8.72;84.98;101190.55;108939;1278;138809;-58
2022/01/24 06:30:20;;;;;;;13.80;8.00;;;;;;;-8.67;85.12;101201.31;109088;1277;22415;-58
2022/01/24 06:32:48;;;;;;;14.80;8.20;;;;;;;-8.66;84.99;101197.73;109046;1277;23224;-58
2022/01/24 06:35:16;;;;;;;19.90;8.50;;;;;;;-8.64;85.06;101197.59;108966;1278;138913;-58
2022/01/24 06:37:44;;;;;;;15.10;8.10;;;;;;;-8.63;85.03;101197.55;109058;1277;22482;-58
2022/01/24 06:40:12;;;;;;;17.60;9.30;;;;;;;-8.60;85.11;101198.08;108974;1278;138756;-58
2022/01/24 06:42:40;;;;;;;19.20;9.90;;;;;;;-8.56;85.14;101205.23;109022;1278;22664;-58
2022/01/24 06:45:08;;;;;;;19.00;10.20;;;;;;;-8.53;85.13;101205.07;108966;1277;139345;-58
2022/01/24 06:47:36;;;;;;;18.90;9.00;;;;;;;-8.48;85.22;101207.39;108980;1277;22467;-57
2022/01/24 06:50:04;;;;;;;21.50;9.70;;;;;;;-8.45;85.16;101208.05;108962;1277;22630;-58
2022/01/24 06:52:33;;;;;;;21.80;9.40;;;;;;;-8.42;85.13;101204.67;108927;1277;138826;-57
2022/01/24 06:55:01;;;;;;;19.70;10.00;;;;;;;-8.40;85.18;101199.80;108994;1276;24115;-57
2022/01/24 06:57:29;;;;;;;20.10;10.30;;;;;;;-8.37;85.31;101196.64;108945;1276;140805;-58
2022/01/24 06:59:57;;;;;;;20.00;10.20;;;;;;;-8.34;85.34;101194.12;109021;1276;22576;-57
2022/01/24 07:02:24;;;;;;;23.10;9.80;;;;;;;-8.33;85.24;101191.59;108982;1277;22504;-58
2022/01/24 07:04:52;;;;;;;17.30;9.60;;;;;;;-8.28;85.23;101196.40;108927;1277;140098;-57
2022/01/24 07:07:20;;;;;;;21.80;9.00;;;;;;;-8.24;85.34;101198.60;109050;1276;22463;-57
2022/01/24 07:09:48;;;;;;;17.20;9.80;;;;;;;-8.22;85.31;101195.23;108989;1276;140349;-57
2022/01/24 07:12:16;;;;;;;19.00;10.20;;;;;;;-8.18;85.31;101197.52;109046;1276;22471;-57
2022/01/24 07:14:44;;;;;;;19.80;10.30;;;;;;;-8.14;85.39;101196.21;109010;1277;22458;-57
2022/01/24 07:17:58;;;;;;;23.00;11.00;;;;;;;-8.13;85.37;101193.17;108970;1277;139603;-58
2022/01/24 07:20:00;;;;;;;15.80;9.50;;;;;;;-8.06;85.46;101197.09;109026;1277;23423;-58
2022/01/24 07:22:28;;;;;;;16.40;9.20;;;;;;;-8.01;85.48;101195.17;108956;1277;139131;-57
2022/01/24 07:24:57;;;;;;;17.50;9.60;;;;;;;-7.95;85.47;101194.83;109053;1277;22544;-58
2022/01/24 07:27:25;;;;;;;19.20;9.80;;;;;;;-7.91;85.40;101200.36;108922;1276;140766;-57
2022/01/24 07:29:53;;;;;;;23.40;9.10;;;;;;;-7.88;85.44;101192.73;109052;1277;24234;-57
2022/01/24 07:32:21;;;;;;;15.50;8.70;;;;;;;-7.85;85.34;101190.44;109063;1277;22264;-57
2022/01/24 07:34:50;;;;;;;15.70;9.20;;;;;;;-7.79;85.48;101189.52;108919;1278;139428;-57
2022/01/24 07:37:18;;;;;;;13.30;8.30;;;;;;;-7.72;85.54;101191.90;109047;1277;22481;-58
2022/01/24 07:39:46;;;;;;;19.00;10.00;;;;;;;-7.67;85.50;101190.70;108942;1277;139875;-61
2022/01/24 07:42:16;;;;;;;14.10;8.90;;;;;;;-7.63;85.33;101190.40;109060;1277;22505;-61
2022/01/24 07:44:45;;;;;;;13.80;8.20;;;;;;;-7.59;85.36;101195.75;109066;1277;23341;-61
2022/01/24 07:47:13;;;;;;;21.10;9.70;;;;;;;-7.54;85.23;101187.83;108892;1277;138718;-61
2022/01/24 07:49:41;;;;;;;13.50;8.10;;;;;;;-7.48;85.15;101186.19;109014;1276;22526;-61
2022/01/24 07:52:09;;;;;;;15.80;8.60;;;;;;;-7.41;85.07;101187.72;108921;1278;139053;-61
2022/01/24 07:54:37;;;;;;;18.90;9.40;;;;;;;-7.35;84.94;101185.17;109029;1277;23687;-61
2022/01/24 07:57:06;;;;;;;18.70;10.10;;;;;;;-7.31;84.82;101179.58;108962;1277;140709;-60
2022/01/24 07:59:34;;;;;;;18.10;9.60;;;;;;;-7.31;84.64;101164.98;109066;1277;22547;-61
2022/01/24 08:02:02;;;;;;;18.30;10.10;;;;;;;-7.23;84.29;101170.59;109026;1278;23221;-61
2022/01/24 08:04:30;;;;;;;19.20;10.70;;;;;;;-7.21;84.12;101172.37;109009;1276;139857;-61
2022/01/24 08:06:58;;;;;;;18.20;10.80;;;;;;;-7.17;84.15;101168.42;109080;1277;23775;-61
2022/01/24 08:09:26;;;;;;;19.80;10.50;;;;;;;-7.14;83.88;101165.90;108914;1275;140028;-60
2022/01/24 08:11:54;;;;;;;18.80;10.20;;;;;;;-7.11;83.78;101165.17;109077;1277;22436;-61
2022/01/24 08:14:27;;;;;;;19.20;10.40;;;;;;;-7.08;83.80;101158.63;109026;1276;22442;-61
2022/01/24 08:16:55;;;;;;;19.90;9.90;;;;;;;-7.03;83.67;101159.48;108834;1277;140616;-60
2022/01/24 08:19:23;;;;;;;22.00;10.30;;;;;;;-6.96;83.60;101158.84;109086;1277;22349;-61
2022/01/24 08:21:53;;;;;;;18.00;9.80;;;;;;;-6.92;83.42;101156.95;108974;1277;138982;-61
2022/01/24 08:24:21;;;;;;;21.10;10.50;;;;;;;-6.87;83.19;101151.85;109060;1277;22486;-61
2022/01/24 08:26:49;;;;;;;20.40;10.20;;;;;;;-6.83;83.03;101151.58;109104;1277;23019;-61
2022/01/24 08:29:17;;;;;;;20.90;9.30;;;;;;;-6.79;82.88;101158.69;108935;1278;138574;-61
2022/01/24 08:31:45;;;;;;;21.30;10.70;;;;;;;-6.75;82.61;101157.04;109096;1277;22431;-61
2022/01/24 08:34:13;;;;;;;21.70;10.60;;;;;;;-6.73;82.44;101154.75;108962;1277;139324;-61
2022/01/24 08:36:40;;;;;;;20.10;10.00;;;;;;;-6.71;82.27;101157.06;109064;1277;23349;-62
2022/01/24 08:39:09;;;;;;;19.50;11.10;;;;;;;-6.68;81.86;101148.42;108955;1277;139304;-61
2022/01/24 08:44:33;;;;;;;23.10;10.50;;;;;;;-6.64;81.43;101142.33;109087;1277;23398;-61
2022/01/24 08:47:01;;;;;;;19.10;10.10;;;;;;;-6.61;81.36;101136.43;108993;1277;140563;-61
2022/01/24 08:49:30;;;;;;;19.80;9.90;;;;;;;-6.57;81.34;101136.80;109095;1277;22483;-61
2022/01/24 08:52:00;;;;;;;22.80;10.90;;;;;;;-6.53;80.82;101141.30;108949;1278;138279;-61
2022/01/24 08:54:33;;;;;;;26.50;11.80;;;;;;;-6.51;80.74;101141.39;109059;1277;24348;-61
2022/01/24 08:57:02;;;;;;;25.00;12.80;;;;;;;-6.49;80.55;101140.14;108975;1278;139507;-60
2022/01/24 08:59:31;;;;;;;18.80;10.10;;;;;;;-6.47;80.24;101141.60;109043;1277;22596;-63
2022/01/24 09:02:00;;;;;;;27.10;11.90;;;;;;;-6.45;80.33;101140.38;109069;1277;23143;-63
2022/01/24 09:04:30;;;;;;;22.70;11.40;;;;;;;-6.40;80.41;101139.52;108973;1277;139523;-63
2022/01/24 09:07:02;;;;;;;29.70;13.50;;;;;;;-6.36;80.32;101137.09;109080;1276;22483;-63
2022/01/24 09:09:31;;;;;;;23.60;11.70;;;;;;;-6.32;79.95;101136.64;108937;1277;138737;-62
2022/01/24 09:11:59;;;;;;;25.70;12.20;;;;;;;-6.29;79.96;101142.94;109051;1277;22494;-63
2022/01/24 09:14:47;;;;;;;21.50;11.00;;;;;;;-6.26;79.75;101146.83;109136;1277;22427;-63
2022/01/24 09:17:16;;;;;;;21.20;11.50;;;;;;;-6.24;79.56;101148.10;108937;1277;139605;-63
2022/01/24 09:19:43;;;;;;;21.90;11.70;;;;;;;-6.23;79.31;101150.27;109100;1277;22495;-62
2022/01/24 09:22:34;;;;;;;20.20;10.40;;;;;;;-6.23;79.42;101147.97;108999;1277;139586;-61
2022/01/24 09:25:03;;;;;;;22.30;11.30;;;;;;;-6.24;79.17;101148.44;109077;1276;22580;-61
2022/01/24 09:27:31;;;;;;;19.60;11.10;;;;;;;-6.26;79.30;101140.08;109025;1276;139515;-61
2022/01/24 09:29:59;;;;;;;20.70;11.80;;;;;;;-6.24;79.30;101143.83;109101;1277;22492;-61
2022/01/24 09:32:27;;;;;;;25.80;14.20;;;;;;;-6.23;79.08;101142.48;109121;1277;22426;-63
2022/01/24 09:34:55;;;;;;;22.80;11.70;;;;;;;-6.21;79.06;101136.33;108990;1277;139679;-60
2022/01/24 09:37:24;;;;;;;26.30;12.80;;;;;;;-6.19;78.94;101138.11;109086;1277;22575;-61
2022/01/24 09:39:52;;;;;;;26.00;12.90;;;;;;;-6.17;78.84;101137.27;108992;1277;139118;-58
2022/01/24 09:42:26;;;;;;;21.40;11.40;;;;;;;-6.17;78.79;101139.04;109116;1277;22679;-57
2022/01/24 09:44:55;;;;;;;26.00;13.20;;;;;;;-6.19;79.25;101140.42;109114;1276;22519;-57
2022/01/24 09:47:23;;;;;;;24.30;11.70;;;;;;;-6.23;79.25;101135.08;109037;1277;140428;-57
2022/01/24 09:49:51;;;;;;;29.80;14.10;;;;;;;-6.25;79.28;101131.52;109165;1277;22449;-57
2022/01/24 09:52:19;;;;;;;26.10;11.70;;;;;;;-6.30;79.23;101120.39;109030;1276;138914;-57
2022/01/24 09:54:47;;;;;;;21.90;11.00;;;;;;;-6.27;79.39;101123.02;109037;1277;22467;-57
2022/01/24 09:57:15;;;;;;;22.00;11.60;;;;;;;-6.26;79.47;101121.54;109003;1277;139439;-57
2022/01/24 09:59:43;;;;;;;22.20;12.10;;;;;;;-6.25;79.77;101124.13;109082;1277;22542;-58
2022/01/24 10:02:11;;;;;;;20.80;11.50;;;;;;;-6.25;79.64;101118.30;109103;1277;23312;-58
2022/01/24 10:04:39;;;;;;;25.50;12.50;;;;;;;-6.24;79.73;101114.15;109015;1277;138918;-58
2022/01/24 10:07:08;;;;;;;22.10;12.40;;;;;;;-6.22;79.95;101115.42;109075;1277;22416;-58
2022/01/24 10:09:43;;;;;;;22.10;11.10;;;;;;;-6.23;79.82;101106.05;108982;1277;141064;-58
2022/01/24 10:18:02;;;;;;;27.30;13.60;;;;;;;-6.07;78.87;101105.60;109107;1277;22453;-58
2022/01/24 10:20:33;;;;;;;28.70;13.30;;;;;;;-6.05;78.55;101097.48;109149;1277;22801;-58
2022/01/24 10:23:10;;;;;;;20.90;12.00;;;;;;;-6.02;78.46;101093.05;109019;1277;138890;-57
2022/01/24 10:25:55;;;;;;;21.60;11.90;;;;;;;-6.00;78.19;101095.36;109053;1277;23217;-58
2022/01/24 10:28:51;;;;;;;24.10;12.60;;;;;;;-6.02;77.69;101092.50;108996;1277;138882;-58
2022/01/24 10:31:24;;;;;;;24.60;12.00;;;;;;;-6.03;77.65;101088.33;109063;1277;22464;-57
2022/01/24 10:34:23;;;;;;;27.60;14.50;;;;;;;-6.01;77.67;101084.84;108980;1277;139955;-58
2022/01/24 10:36:54;;;;;;;20.30;12.10;;;;;;;-5.98;77.93;101086.72;109158;1277;22452;-58
2022/01/24 10:44:59;;;;;;;25.20;13.20;;;;;;;-5.85;77.65;101076.48;104616;1278;24369;-57
2022/01/24 10:47:29;;;;;;;24.90;12.90;;;;;;;-5.81;77.51;101072.19;108946;1276;139662;-57
2022/01/24 10:50:00;;;;;;;26.00;13.10;;;;;;;-5.79;77.30;101065.64;109083;1277;22492;-58
2022/01/24 10:52:30;;;;;;;25.20;12.80;;;;;;;-5.79;77.10;101063.52;108995;1277;140208;-58
2022/01/24 10:55:17;;;;;;;28.40;12.40;;;;;;;-5.81;76.97;101060.61;109129;1277;22491;-58
2022/01/24 10:57:49;;;;;;;24.90;12.40;;;;;;;-5.78;77.03;101059.91;109007;1277;140722;-57
2022/01/24 11:00:20;;;;;;;24.30;13.20;;;;;;;-5.76;77.14;101050.30;109035;1277;22849;-57
2022/01/24 11:02:50;;;;;;;25.80;13.80;;;;;;;-5.72;76.98;101049.48;109085;1277;22516;-58
2022/01/24 11:05:27;;;;;;;26.10;14.30;;;;;;;-5.67;76.91;101047.06;108998;1277;139682;-57
2022/01/24 11:08:01;;;;;;;25.80;14.60;;;;;;;-5.64;76.98;101041.30;109108;1277;23245;-57
2022/01/24 11:10:33;;;;;;;30.80;16.60;;;;;;;-5.60;76.86;101040.63;108772;1277;379904;-57
2022/01/24 11:14:24;;;;;;;25.90;13.50;;;;;;;-5.54;76.42;101043.02;101753;1309;545427;-57
2022/01/24 11:16:56;;;;;;;24.60;13.10;;;;;;;-5.59;76.42;101033.47;108116;1286;138921;-58
2022/01/24 11:19:47;;;;;;;26.30;13.40;;;;;;;-5.50;76.34;101042.36;108315;1286;23639;-58
2022/01/24 11:22:20;;;;;;;21.50;12.20;;;;;;;-5.45;76.35;101033.46;108189;1285;138941;-58
2022/01/24 11:24:56;;;;;;;26.50;13.40;;;;;;;-5.41;76.15;101030.10;108273;1286;22404;-58
2022/01/24 11:27:36;;;;;;;22.60;12.60;;;;;;;-5.39;75.95;101030.13;108118;1283;156122;-58
2022/01/24 11:30:22;;;;;;;23.80;13.30;;;;;;;-5.38;75.78;101030.06;108534;1283;22509;-58
2022/01/24 11:33:01;;;;;;;23.90;12.70;;;;;;;-5.35;75.87;101031.58;108331;1283;22414;-58
2022/01/24 11:35:44;;;;;;;25.80;12.60;;;;;;;-5.31;75.71;101031.45;107989;1285;137944;-58
2022/01/24 11:38:30;;;;;;;24.30;13.10;;;;;;;-5.26;75.47;101029.70;108443;1282;22506;-58
2022/01/24 11:41:00;;;;;;;26.30;12.20;;;;;;;-5.23;75.29;101033.72;104899;1284;138186;-57
2022/01/24 11:43:34;;;;;;;21.80;10.60;;;;;;;-5.20;75.03;101032.06;104005;1284;22589;-57
2022/01/24 11:46:08;;;;;;;22.00;11.00;;;;;;;-5.19;74.78;101032.15;103924;1284;137476;-57
2022/01/24 11:48:37;;;;;;;24.50;11.30;;;;;;;-5.18;74.75;101031.53;108438;1284;22501;-58
2022/01/24 11:51:09;;;;;;;19.40;10.90;;;;;;;-5.17;74.70;101028.41;108433;1284;22524;-58
2022/01/24 11:53:43;;;;;;;20.10;10.90;;;;;;;-5.17;74.52;101019.55;108317;1284;139011;-57
2022/01/24 11:56:22;;;;;;;18.60;11.00;;;;;;;-5.18;74.43;101018.73;108422;1284;22510;-57
2022/01/24 11:58:50;;;;;;;23.30;10.70;;;;;;;-5.18;74.56;101021.43;108358;1284;139365;-58
2022/01/24 12:01:38;;;;;;;18.70;9.40;;;;;;;-5.18;74.60;101017.49;108197;1284;22576;-57
2022/01/24 12:04:06;;;;;;;22.20;10.60;;;;;;;-5.16;74.43;101020.52;108316;1284;138985;-58
2022/01/24 12:07:13;;;;;;;19.20;10.30;;;;;;;-5.13;74.52;101020.82;108469;1283;22436;-58
2022/01/24 12:09:41;;;;;;;21.80;11.30;;;;;;;-5.08;74.54;101025.59;108205;1284;138823;-57
2022/01/24 12:12:35;;;;;;;18.40;9.50;;;;;;;-5.04;74.36;101022.41;108429;1284;22649;-58
2022/01/24 12:15:04;;;;;;;17.80;9.90;;;;;;;-4.99;74.13;101022.21;108463;1284;22560;-57
2022/01/24 12:17:49;;;;;;;22.80;10.60;;;;;;;-4.97;73.88;101021.73;108187;1284;137382;-57
2022/01/24 12:20:29;;;;;;;18.70;9.30;;;;;;;-4.95;73.76;101019.77;108426;1283;22504;-57
2022/01/24 12:23:25;;;;;;;16.50;10.40;;;;;;;-4.91;73.80;101023.55;108265;1284;137533;-58
2022/01/24 12:26:30;;;;;;;15.90;9.10;;;;;;;-4.89;73.83;101029.89;108444;1284;23207;-57
2022/01/24 12:29:04;;;;;;;15.40;7.80;;;;;;;-4.90;77.78;101017.92;108310;1284;139024;-58
2022/01/24 12:31:44;;;;;;;18.90;10.00;;;;;;;-4.90;80.03;101012.27;108422;1284;23413;-58
2022/01/24 12:34:21;;;;;;;16.60;9.10;;;;;;;-4.89;80.96;101011.13;108286;1284;139348;-58
2022/01/24 12:36:51;;;;;;;13.70;8.30;;;;;;;-4.90;81.26;101013.13;108469;1284;22450;-58
2022/01/24 12:39:26;;;;;;;19.70;9.70;;;;;;;-4.89;81.49;101014.34;108196;1285;139329;-57
2022/01/24 12:42:00;;;;;;;13.80;7.20;;;;;;;-4.88;80.87;101017.46;108458;1284;22681;-58
2022/01/24 12:47:22;;;;;;;17.50;9.40;;;;;;;-4.93;79.53;101014.70;108267;1284;137814;-57
2022/01/24 12:49:51;;;;;;;17.70;8.60;;;;;;;-4.98;78.76;101013.06;108454;1284;23767;-58
2022/01/24 12:52:24;;;;;;;14.60;8.50;;;;;;;-5.02;78.51;101020.47;108360;1284;138173;-57
2022/01/24 12:54:57;;;;;;;;;;;;;;;-5.07;78.81;101020.54;108411;1284;22578;-58
2022/01/24 12:57:29;;;;;;;16.50;8.80;;;;;;;-5.11;78.07;101016.07;108332;1284;125861;-58
2022/01/24 13:00:01;;;;;;;14.40;8.40;;;;;;;-5.11;77.85;101014.64;108463;1284;22456;-58
2022/01/24 13:02:31;;;;;;;16.70;8.60;;;;;;;-5.10;77.17;101013.34;108430;1283;22404;-57
2022/01/24 13:05:01;;;;;;;14.80;8.30;;;;;;;-5.09;76.29;101017.17;108333;1284;139069;-58
2022/01/24 13:07:31;;;;;;;14.40;8.70;;;;;;;-5.11;75.68;101012.37;109120;1276;22410;-57
2022/01/24 13:10:19;;;;;;;15.20;8.50;;;;;;;-5.12;75.02;101011.02;108975;1277;138620;-58
2022/01/24 13:12:55;;;;;;;15.50;9.20;;;;;;;-5.11;74.34;101015.24;109160;1276;23111;-57
2022/01/24 13:21:22;;;;;;;19.40;9.30;;;;;;;-5.19;73.17;101015.11;109042;1276;138200;-58